Columbus, MT

1:28 PM MST on December 07, 2016 (GMT -0700)
Wagon Trail Rd | | Change Station

Elev 3665 ft 45.62 °N, 109.28 °W | Updated 19 seconds ago

Scattered Clouds
Scattered Clouds
12.2 °F
Feels Like 12 °F
N
2.0
Wind Variable Wind from SE
Gusts 4.0 mph

Today
High -- | Low -- °F
--% Chance of Precip.
Yesterday
High -- | Low -- °F
Precip. -- in
Pressure 30.63 in
Visibility 10.0 miles
Clouds Few 4000 ft
Scattered Clouds 9000 ft
Windchill 12 °F
Dew Point -1 °F
Humidity 56%
Rainfall in
Snow Depth Not available.
7:44 AM 4:33 PM
First Quarter, 55% visible
METAR KBIL 071953Z 32004KT 10SM FEW040 SCT090 M12/M19 A3041 RMK AO2 SLP372 ACSL SE-W T11171194
Pressure 30.63 in
Visibility 10.0 miles
Clouds Few 4000 ft
Scattered Clouds 9000 ft
Windchill 12 °F
Dew Point -1 °F
Humidity 56%
Rainfall in
Snow Depth Not available.
7:44 AM 4:33 PM
First Quarter, 55% visible
METAR KBIL 071953Z 32004KT 10SM FEW040 SCT090 M12/M19 A3041 RMK AO2 SLP372 ACSL SE-W T11171194

10-Day Weather Forecast

Almanac

Astronomy

Dec. 07, 2016 Rise Set
Actual Time
Civil Twilight
Nautical Twilight
Astronomical Twilight
Moon
Length of Visible Light
Length of Day
Tomorrow will be .
, % of the Moon is Illuminated

Today's Extremes

State Highs State Lows

Community

WunderPhotos

Upload Photos

1,956,168 photos uploaded!

WunderBlog® & News

Nearby

Air Quality

  Air Quality AQ Index Pollutant
Not available.

Snow Depth

Station Depth Elevation

Earthquake Activity

City Distance Mag. Time & Date
Minimum magnitude displayed is 2.5.

Coastal Water Temperatures

Place Temperature

Stations

Nearby Weather Stations

Station Location Temp. Windchill Dew Point Humidity Wind Precip. Elev Updated Type
                   

Watches & Warnings

There are currently no watches in effect.